sensor_id;sensor_type;location;lat;lon;timestamp;temperature;humidity
24097;DHT22;12275;48.550;12.132;2023-07-13T00:01:28;20.30;99.90
24097;DHT22;12275;48.550;12.132;2023-07-13T00:03:54;20.10;99.90
24097;DHT22;12275;48.550;12.132;2023-07-13T00:06:20;20.10;99.90
24097;DHT22;12275;48.550;12.132;2023-07-13T00:08:46;20.20;99.90
24097;DHT22;12275;48.550;12.132;2023-07-13T00:11:14;20.20;99.90
24097;DHT22;12275;48.550;12.132;2023-07-13T00:13:40;20.20;99.90
24097;DHT22;12275;48.550;12.132;2023-07-13T00:16:07;20.10;99.90
24097;DHT22;12275;48.550;12.132;2023-07-13T00:18:32;20.10;99.90
24097;DHT22;12275;48.550;12.132;2023-07-13T00:20:58;20.10;99.90
24097;DHT22;12275;48.550;12.132;2023-07-13T00:23:32;20.10;99.90
24097;DHT22;12275;48.550;12.132;2023-07-13T00:26:02;20.10;99.90
24097;DHT22;12275;48.550;12.132;2023-07-13T00:28:28;20.10;99.90
24097;DHT22;12275;48.550;12.132;2023-07-13T00:30:54;20.10;99.90
24097;DHT22;12275;48.550;12.132;2023-07-13T00:33:20;20.10;99.90
24097;DHT22;12275;48.550;12.132;2023-07-13T00:35:46;20.10;99.90
24097;DHT22;12275;48.550;12.132;2023-07-13T00:38:13;20.10;99.90
24097;DHT22;12275;48.550;12.132;2023-07-13T00:40:38;20.10;99.90
24097;DHT22;12275;48.550;12.132;2023-07-13T00:43:11;20.10;99.90
24097;DHT22;12275;48.550;12.132;2023-07-13T00:48:02;20.00;99.90
24097;DHT22;12275;48.550;12.132;2023-07-13T00:50:28;20.00;99.90
24097;DHT22;12275;48.550;12.132;2023-07-13T00:52:54;20.10;99.90
24097;DHT22;12275;48.550;12.132;2023-07-13T00:55:23;20.10;99.90
24097;DHT22;12275;48.550;12.132;2023-07-13T00:57:49;20.10;99.90
24097;DHT22;12275;48.550;12.132;2023-07-13T01:00:14;20.00;99.90
24097;DHT22;12275;48.550;12.132;2023-07-13T01:02:45;20.00;99.90
24097;DHT22;12275;48.550;12.132;2023-07-13T01:05:14;20.00;99.90
24097;DHT22;12275;48.550;12.132;2023-07-13T01:07:41;20.00;99.90
24097;DHT22;12275;48.550;12.132;2023-07-13T01:10:10;20.00;99.90
24097;DHT22;12275;48.550;12.132;2023-07-13T01:12:36;20.10;99.90
24097;DHT22;12275;48.550;12.132;2023-07-13T01:15:03;20.10;99.90
24097;DHT22;12275;48.550;12.132;2023-07-13T01:17:31;20.10;99.90
24097;DHT22;12275;48.550;12.132;2023-07-13T01:19:58;20.10;99.90
24097;DHT22;12275;48.550;12.132;2023-07-13T01:22:24;20.10;99.90
24097;DHT22;12275;48.550;12.132;2023-07-13T01:24:51;20.10;99.90
24097;DHT22;12275;48.550;12.132;2023-07-13T01:27:20;20.00;99.90
24097;DHT22;12275;48.550;12.132;2023-07-13T01:29:46;20.00;99.90
24097;DHT22;12275;48.550;12.132;2023-07-13T01:32:15;20.10;99.90
24097;DHT22;12275;48.550;12.132;2023-07-13T01:34:41;20.10;99.90
24097;DHT22;12275;48.550;12.132;2023-07-13T01:37:12;20.10;99.90
24097;DHT22;12275;48.550;12.132;2023-07-13T01:39:38;20.10;99.90
24097;DHT22;12275;48.550;12.132;2023-07-13T01:42:04;20.10;99.90
24097;DHT22;12275;48.550;12.132;2023-07-13T01:44:30;20.10;99.90
24097;DHT22;12275;48.550;12.132;2023-07-13T01:46:55;20.10;99.90
24097;DHT22;12275;48.550;12.132;2023-07-13T01:49:21;20.10;99.90
24097;DHT22;12275;48.550;12.132;2023-07-13T01:51:47;20.10;99.90
24097;DHT22;12275;48.550;12.132;2023-07-13T01:54:12;20.10;99.90
24097;DHT22;12275;48.550;12.132;2023-07-13T01:56:38;20.10;99.90
24097;DHT22;12275;48.550;12.132;2023-07-13T01:59:05;20.10;99.90
24097;DHT22;12275;48.550;12.132;2023-07-13T02:01:31;20.10;99.90
24097;DHT22;12275;48.550;12.132;2023-07-13T02:03:58;20.10;99.90
24097;DHT22;12275;48.550;12.132;2023-07-13T02:06:23;20.10;99.90
24097;DHT22;12275;48.550;12.132;2023-07-13T02:08:49;20.10;99.90
24097;DHT22;12275;48.550;12.132;2023-07-13T02:11:14;20.10;99.90
24097;DHT22;12275;48.550;12.132;2023-07-13T02:13:40;20.10;99.90
24097;DHT22;12275;48.550;12.132;2023-07-13T02:16:06;20.10;99.90
24097;DHT22;12275;48.550;12.132;2023-07-13T02:18:32;20.10;99.90
24097;DHT22;12275;48.550;12.132;2023-07-13T02:20:58;20.10;99.90
24097;DHT22;12275;48.550;12.132;2023-07-13T02:23:24;20.10;99.90
24097;DHT22;12275;48.550;12.132;2023-07-13T02:25:53;20.10;99.90
24097;DHT22;12275;48.550;12.132;2023-07-13T02:28:19;20.00;99.90
24097;DHT22;12275;48.550;12.132;2023-07-13T02:30:45;20.00;99.90
24097;DHT22;12275;48.550;12.132;2023-07-13T02:33:10;20.10;99.90
24097;DHT22;12275;48.550;12.132;2023-07-13T02:35:36;20.10;99.90
24097;DHT22;12275;48.550;12.132;2023-07-13T02:38:02;20.10;99.90
24097;DHT22;12275;48.550;12.132;2023-07-13T02:40:27;20.10;99.90
24097;DHT22;12275;48.550;12.132;2023-07-13T02:42:53;20.00;99.90
24097;DHT22;12275;48.550;12.132;2023-07-13T02:45:18;20.00;99.90
24097;DHT22;12275;48.550;12.132;2023-07-13T02:47:44;20.00;99.90
24097;DHT22;12275;48.550;12.132;2023-07-13T02:50:10;20.00;99.90
24097;DHT22;12275;48.550;12.132;2023-07-13T02:52:35;20.00;99.90
24097;DHT22;12275;48.550;12.132;2023-07-13T02:55:01;20.00;99.90
24097;DHT22;12275;48.550;12.132;2023-07-13T02:57:27;20.00;99.90
24097;DHT22;12275;48.550;12.132;2023-07-13T02:59:53;20.00;99.90
24097;DHT22;12275;48.550;12.132;2023-07-13T03:02:19;20.00;99.90
24097;DHT22;12275;48.550;12.132;2023-07-13T03:04:45;20.00;99.90
24097;DHT22;12275;48.550;12.132;2023-07-13T03:07:11;20.10;99.90
24097;DHT22;12275;48.550;12.132;2023-07-13T03:09:38;20.00;99.90
24097;DHT22;12275;48.550;12.132;2023-07-13T03:12:04;20.10;99.90
24097;DHT22;12275;48.550;12.132;2023-07-13T03:14:29;20.00;99.90
24097;DHT22;12275;48.550;12.132;2023-07-13T03:16:55;20.00;99.90
24097;DHT22;12275;48.550;12.132;2023-07-13T03:19:21;20.00;99.90
24097;DHT22;12275;48.550;12.132;2023-07-13T03:21:46;20.00;99.90
24097;DHT22;12275;48.550;12.132;2023-07-13T03:24:12;20.00;99.90
24097;DHT22;12275;48.550;12.132;2023-07-13T03:26:38;20.00;99.90
24097;DHT22;12275;48.550;12.132;2023-07-13T03:29:04;20.00;99.90
24097;DHT22;12275;48.550;12.132;2023-07-13T03:31:32;20.00;99.90
24097;DHT22;12275;48.550;12.132;2023-07-13T03:33:58;20.00;99.90
24097;DHT22;12275;48.550;12.132;2023-07-13T03:36:27;20.00;99.90
24097;DHT22;12275;48.550;12.132;2023-07-13T03:38:56;20.00;99.90
24097;DHT22;12275;48.550;12.132;2023-07-13T03:41:23;19.90;99.90
24097;DHT22;12275;48.550;12.132;2023-07-13T03:43:49;19.90;99.90
24097;DHT22;12275;48.550;12.132;2023-07-13T03:46:16;19.90;99.90
24097;DHT22;12275;48.550;12.132;2023-07-13T03:48:43;20.00;99.90
24097;DHT22;12275;48.550;12.132;2023-07-13T03:51:10;20.00;99.90
24097;DHT22;12275;48.550;12.132;2023-07-13T03:53:40;20.00;99.90
24097;DHT22;12275;48.550;12.132;2023-07-13T03:56:07;20.00;99.90
24097;DHT22;12275;48.550;12.132;2023-07-13T03:58:38;20.00;99.90
24097;DHT22;12275;48.550;12.132;2023-07-13T04:01:06;20.00;99.90
24097;DHT22;12275;48.550;12.132;2023-07-13T04:03:33;20.00;99.90
24097;DHT22;12275;48.550;12.132;2023-07-13T04:06:00;20.00;99.90
24097;DHT22;12275;48.550;12.132;2023-07-13T04:08:30;20.00;99.90
24097;DHT22;12275;48.550;12.132;2023-07-13T04:10:57;20.00;99.90
24097;DHT22;12275;48.550;12.132;2023-07-13T04:13:23;20.00;99.90
24097;DHT22;12275;48.550;12.132;2023-07-13T04:15:49;19.90;99.90
24097;DHT22;12275;48.550;12.132;2023-07-13T04:18:15;19.90;99.90
24097;DHT22;12275;48.550;12.132;2023-07-13T04:20:41;19.90;99.90
24097;DHT22;12275;48.550;12.132;2023-07-13T04:23:06;19.90;99.90
24097;DHT22;12275;48.550;12.132;2023-07-13T04:25:32;19.90;99.90
24097;DHT22;12275;48.550;12.132;2023-07-13T04:27:58;20.00;99.90
24097;DHT22;12275;48.550;12.132;2023-07-13T04:30:24;19.90;99.90
24097;DHT22;12275;48.550;12.132;2023-07-13T04:32:52;19.90;99.90
24097;DHT22;12275;48.550;12.132;2023-07-13T04:35:21;19.90;99.90
24097;DHT22;12275;48.550;12.132;2023-07-13T04:37:50;19.90;99.90
24097;DHT22;12275;48.550;12.132;2023-07-13T04:40:17;19.90;99.90
24097;DHT22;12275;48.550;12.132;2023-07-13T04:42:44;19.90;99.90
24097;DHT22;12275;48.550;12.132;2023-07-13T04:45:10;19.90;99.90
24097;DHT22;12275;48.550;12.132;2023-07-13T04:47:36;19.90;99.90
24097;DHT22;12275;48.550;12.132;2023-07-13T04:50:02;19.90;99.90
24097;DHT22;12275;48.550;12.132;2023-07-13T04:52:28;19.90;99.90
24097;DHT22;12275;48.550;12.132;2023-07-13T04:54:54;19.90;99.90
24097;DHT22;12275;48.550;12.132;2023-07-13T04:57:20;19.90;99.90
24097;DHT22;12275;48.550;12.132;2023-07-13T04:59:45;19.90;99.90
24097;DHT22;12275;48.550;12.132;2023-07-13T05:02:11;19.90;99.90
24097;DHT22;12275;48.550;12.132;2023-07-13T05:04:36;19.90;99.90
24097;DHT22;12275;48.550;12.132;2023-07-13T05:07:02;19.90;99.90
24097;DHT22;12275;48.550;12.132;2023-07-13T05:09:28;19.90;99.90
24097;DHT22;12275;48.550;12.132;2023-07-13T05:11:53;19.90;99.90
24097;DHT22;12275;48.550;12.132;2023-07-13T05:14:19;20.00;99.90
24097;DHT22;12275;48.550;12.132;2023-07-13T05:16:44;20.00;99.90
24097;DHT22;12275;48.550;12.132;2023-07-13T05:19:11;20.00;99.90
24097;DHT22;12275;48.550;12.132;2023-07-13T05:21:37;20.00;99.90
24097;DHT22;12275;48.550;12.132;2023-07-13T05:24:03;20.00;99.90
24097;DHT22;12275;48.550;12.132;2023-07-13T05:26:28;20.00;99.90
24097;DHT22;12275;48.550;12.132;2023-07-13T05:28:54;20.00;99.90
24097;DHT22;12275;48.550;12.132;2023-07-13T05:31:20;20.00;99.90
24097;DHT22;12275;48.550;12.132;2023-07-13T05:33:45;20.00;99.90
24097;DHT22;12275;48.550;12.132;2023-07-13T05:36:11;20.00;99.90
24097;DHT22;12275;48.550;12.132;2023-07-13T05:38:37;20.00;99.90
24097;DHT22;12275;48.550;12.132;2023-07-13T05:41:02;20.00;99.90
24097;DHT22;12275;48.550;12.132;2023-07-13T05:43:28;20.00;99.90
24097;DHT22;12275;48.550;12.132;2023-07-13T05:45:55;20.00;99.90
24097;DHT22;12275;48.550;12.132;2023-07-13T05:48:21;20.00;99.90
24097;DHT22;12275;48.550;12.132;2023-07-13T05:50:47;20.00;99.90
24097;DHT22;12275;48.550;12.132;2023-07-13T05:53:12;20.00;99.90
24097;DHT22;12275;48.550;12.132;2023-07-13T05:55:45;20.10;99.90
24097;DHT22;12275;48.550;12.132;2023-07-13T05:58:18;20.10;99.90
24097;DHT22;12275;48.550;12.132;2023-07-13T06:00:44;20.00;99.90
24097;DHT22;12275;48.550;12.132;2023-07-13T06:03:10;20.00;99.90
24097;DHT22;12275;48.550;12.132;2023-07-13T06:05:37;20.00;99.90
24097;DHT22;12275;48.550;12.132;2023-07-13T06:08:03;20.00;99.90
24097;DHT22;12275;48.550;12.132;2023-07-13T06:10:31;20.00;99.90
24097;DHT22;12275;48.550;12.132;2023-07-13T06:12:57;20.00;99.90
24097;DHT22;12275;48.550;12.132;2023-07-13T06:15:23;20.00;99.90
24097;DHT22;12275;48.550;12.132;2023-07-13T06:17:48;20.00;99.90
24097;DHT22;12275;48.550;12.132;2023-07-13T06:20:14;20.00;99.90
24097;DHT22;12275;48.550;12.132;2023-07-13T06:22:40;20.00;99.90
24097;DHT22;12275;48.550;12.132;2023-07-13T06:25:06;20.00;99.90
24097;DHT22;12275;48.550;12.132;2023-07-13T06:27:32;20.00;99.90
24097;DHT22;12275;48.550;12.132;2023-07-13T06:29:57;20.00;99.90
24097;DHT22;12275;48.550;12.132;2023-07-13T06:32:23;19.90;99.90
24097;DHT22;12275;48.550;12.132;2023-07-13T06:34:48;20.00;99.90
24097;DHT22;12275;48.550;12.132;2023-07-13T06:37:14;19.90;99.90
24097;DHT22;12275;48.550;12.132;2023-07-13T06:39:40;20.00;99.90
24097;DHT22;12275;48.550;12.132;2023-07-13T06:42:06;20.00;99.90
24097;DHT22;12275;48.550;12.132;2023-07-13T06:44:31;20.20;99.90
24097;DHT22;12275;48.550;12.132;2023-07-13T06:46:57;20.20;99.90
24097;DHT22;12275;48.550;12.132;2023-07-13T06:49:23;20.30;99.90
24097;DHT22;12275;48.550;12.132;2023-07-13T06:51:48;20.40;99.90
24097;DHT22;12275;48.550;12.132;2023-07-13T06:54:14;20.50;99.90
24097;DHT22;12275;48.550;12.132;2023-07-13T06:56:39;20.60;99.90
24097;DHT22;12275;48.550;12.132;2023-07-13T06:59:05;20.50;99.90
24097;DHT22;12275;48.550;12.132;2023-07-13T07:01:31;20.50;99.90
24097;DHT22;12275;48.550;12.132;2023-07-13T07:03:56;20.70;99.90
24097;DHT22;12275;48.550;12.132;2023-07-13T07:06:22;20.70;99.90
24097;DHT22;12275;48.550;12.132;2023-07-13T07:08:52;20.70;99.90
24097;DHT22;12275;48.550;12.132;2023-07-13T07:11:23;20.80;99.90
24097;DHT22;12275;48.550;12.132;2023-07-13T07:13:50;20.80;99.90
24097;DHT22;12275;48.550;12.132;2023-07-13T07:16:16;20.90;99.90
24097;DHT22;12275;48.550;12.132;2023-07-13T07:18:42;20.80;99.90
24097;DHT22;12275;48.550;12.132;2023-07-13T07:21:08;20.90;99.90
24097;DHT22;12275;48.550;12.132;2023-07-13T07:23:34;21.00;99.90
24097;DHT22;12275;48.550;12.132;2023-07-13T07:26:00;21.10;99.90
24097;DHT22;12275;48.550;12.132;2023-07-13T07:28:25;21.10;99.90
24097;DHT22;12275;48.550;12.132;2023-07-13T07:30:55;21.20;99.90
24097;DHT22;12275;48.550;12.132;2023-07-13T07:33:21;21.10;99.90
24097;DHT22;12275;48.550;12.132;2023-07-13T07:35:46;21.10;99.90
24097;DHT22;12275;48.550;12.132;2023-07-13T07:38:12;21.10;99.90
24097;DHT22;12275;48.550;12.132;2023-07-13T07:40:39;21.00;99.90
24097;DHT22;12275;48.550;12.132;2023-07-13T07:43:09;21.00;99.90
24097;DHT22;12275;48.550;12.132;2023-07-13T07:45:35;21.10;99.90
24097;DHT22;12275;48.550;12.132;2023-07-13T07:48:03;21.20;99.90
24097;DHT22;12275;48.550;12.132;2023-07-13T07:50:29;21.50;99.90
24097;DHT22;12275;48.550;12.132;2023-07-13T07:52:55;21.70;99.90
24097;DHT22;12275;48.550;12.132;2023-07-13T07:55:25;21.70;99.90
24097;DHT22;12275;48.550;12.132;2023-07-13T07:57:52;21.90;99.90
24097;DHT22;12275;48.550;12.132;2023-07-13T08:00:21;22.00;99.90
24097;DHT22;12275;48.550;12.132;2023-07-13T08:02:47;22.00;99.90
24097;DHT22;12275;48.550;12.132;2023-07-13T08:05:13;21.80;99.90
24097;DHT22;12275;48.550;12.132;2023-07-13T08:07:39;21.60;99.90
24097;DHT22;12275;48.550;12.132;2023-07-13T08:10:06;21.60;99.90
24097;DHT22;12275;48.550;12.132;2023-07-13T08:12:36;21.50;99.90
24097;DHT22;12275;48.550;12.132;2023-07-13T08:15:02;21.50;99.90
24097;DHT22;12275;48.550;12.132;2023-07-13T08:17:28;21.50;99.90
24097;DHT22;12275;48.550;12.132;2023-07-13T08:19:54;21.50;99.90
24097;DHT22;12275;48.550;12.132;2023-07-13T08:22:20;21.50;99.90
24097;DHT22;12275;48.550;12.132;2023-07-13T08:24:45;21.50;99.90
24097;DHT22;12275;48.550;12.132;2023-07-13T08:27:13;21.60;99.90
24097;DHT22;12275;48.550;12.132;2023-07-13T08:29:39;21.60;99.90
24097;DHT22;12275;48.550;12.132;2023-07-13T08:32:06;21.70;99.90
24097;DHT22;12275;48.550;12.132;2023-07-13T08:34:35;21.80;99.90
24097;DHT22;12275;48.550;12.132;2023-07-13T08:37:01;21.80;99.90
24097;DHT22;12275;48.550;12.132;2023-07-13T08:39:27;21.90;99.90
24097;DHT22;12275;48.550;12.132;2023-07-13T08:42:01;21.90;99.90
24097;DHT22;12275;48.550;12.132;2023-07-13T08:44:40;21.80;99.90
24097;DHT22;12275;48.550;12.132;2023-07-13T08:47:09;21.80;99.90
24097;DHT22;12275;48.550;12.132;2023-07-13T08:49:35;21.70;99.90
24097;DHT22;12275;48.550;12.132;2023-07-13T08:52:10;21.60;99.90
24097;DHT22;12275;48.550;12.132;2023-07-13T08:54:47;21.70;99.90
24097;DHT22;12275;48.550;12.132;2023-07-13T08:57:18;21.70;99.90
24097;DHT22;12275;48.550;12.132;2023-07-13T08:59:45;21.70;99.90
24097;DHT22;12275;48.550;12.132;2023-07-13T09:02:23;21.70;99.90
24097;DHT22;12275;48.550;12.132;2023-07-13T09:05:01;21.70;99.90
24097;DHT22;12275;48.550;12.132;2023-07-13T09:10:32;21.60;99.90
24097;DHT22;12275;48.550;12.132;2023-07-13T09:13:28;21.60;99.90
24097;DHT22;12275;48.550;12.132;2023-07-13T09:15:56;21.50;99.90
24097;DHT22;12275;48.550;12.132;2023-07-13T09:18:33;21.40;99.90
24097;DHT22;12275;48.550;12.132;2023-07-13T09:21:16;21.40;99.90
24097;DHT22;12275;48.550;12.132;2023-07-13T09:23:42;21.30;99.90
24097;DHT22;12275;48.550;12.132;2023-07-13T09:26:21;21.20;99.90
24097;DHT22;12275;48.550;12.132;2023-07-13T09:28:57;21.10;99.90
24097;DHT22;12275;48.550;12.132;2023-07-13T09:31:33;21.00;99.90
24097;DHT22;12275;48.550;12.132;2023-07-13T09:34:02;20.80;99.90
24097;DHT22;12275;48.550;12.132;2023-07-13T09:36:30;20.80;99.90
24097;DHT22;12275;48.550;12.132;2023-07-13T09:39:18;20.70;99.90
24097;DHT22;12275;48.550;12.132;2023-07-13T09:44:31;20.60;99.90
24097;DHT22;12275;48.550;12.132;2023-07-13T09:46:59;20.70;99.90
24097;DHT22;12275;48.550;12.132;2023-07-13T09:49:33;20.70;99.90
24097;DHT22;12275;48.550;12.132;2023-07-13T09:52:01;20.70;99.90
24097;DHT22;12275;48.550;12.132;2023-07-13T09:54:27;20.70;99.90
24097;DHT22;12275;48.550;12.132;2023-07-13T09:56:59;20.70;99.90
24097;DHT22;12275;48.550;12.132;2023-07-13T09:59:35;20.70;99.90
24097;DHT22;12275;48.550;12.132;2023-07-13T10:05:02;20.80;99.90
24097;DHT22;12275;48.550;12.132;2023-07-13T10:07:29;20.80;99.90
24097;DHT22;12275;48.550;12.132;2023-07-13T10:09:58;21.00;99.90
24097;DHT22;12275;48.550;12.132;2023-07-13T10:12:24;21.20;99.90
24097;DHT22;12275;48.550;12.132;2023-07-13T10:15:02;21.40;99.90
24097;DHT22;12275;48.550;12.132;2023-07-13T10:17:31;21.50;99.90
24097;DHT22;12275;48.550;12.132;2023-07-13T10:20:03;21.60;99.90
24097;DHT22;12275;48.550;12.132;2023-07-13T10:22:48;21.60;99.90
24097;DHT22;12275;48.550;12.132;2023-07-13T10:25:17;21.60;99.90
24097;DHT22;12275;48.550;12.132;2023-07-13T10:27:44;21.70;99.90
24097;DHT22;12275;48.550;12.132;2023-07-13T10:32:41;21.70;99.90
24097;DHT22;12275;48.550;12.132;2023-07-13T10:35:12;21.70;99.90
24097;DHT22;12275;48.550;12.132;2023-07-13T10:38:00;21.80;99.90
24097;DHT22;12275;48.550;12.132;2023-07-13T10:40:32;22.10;99.90
24097;DHT22;12275;48.550;12.132;2023-07-13T10:43:02;22.30;99.90
24097;DHT22;12275;48.550;12.132;2023-07-13T10:45:33;22.40;99.90
24097;DHT22;12275;48.550;12.132;2023-07-13T10:48:00;22.60;99.90
24097;DHT22;12275;48.550;12.132;2023-07-13T10:50:28;22.80;99.90
24097;DHT22;12275;48.550;12.132;2023-07-13T10:53:17;22.90;99.90
24097;DHT22;12275;48.550;12.132;2023-07-13T10:58:20;22.90;99.90
24097;DHT22;12275;48.550;12.132;2023-07-13T11:03:28;22.80;99.90
24097;DHT22;12275;48.550;12.132;2023-07-13T11:11:43;23.10;99.90
24097;DHT22;12275;48.550;12.132;2023-07-13T11:22:49;23.40;99.90
24097;DHT22;12275;48.550;12.132;2023-07-13T11:25:25;23.60;99.90
24097;DHT22;12275;48.550;12.132;2023-07-13T11:36:04;23.60;99.90
24097;DHT22;12275;48.550;12.132;2023-07-13T11:38:45;23.60;99.90
24097;DHT22;12275;48.550;12.132;2023-07-13T11:41:25;23.50;99.90
24097;DHT22;12275;48.550;12.132;2023-07-13T11:46:53;23.40;99.90
24097;DHT22;12275;48.550;12.132;2023-07-13T11:49:21;23.30;99.90
24097;DHT22;12275;48.550;12.132;2023-07-13T11:51:48;23.30;99.90
24097;DHT22;12275;48.550;12.132;2023-07-13T11:54:29;23.40;99.90
24097;DHT22;12275;48.550;12.132;2023-07-13T11:57:03;23.70;99.90
24097;DHT22;12275;48.550;12.132;2023-07-13T11:59:32;23.70;99.90
24097;DHT22;12275;48.550;12.132;2023-07-13T12:01:59;23.80;99.90
24097;DHT22;12275;48.550;12.132;2023-07-13T12:04:28;23.90;99.90
24097;DHT22;12275;48.550;12.132;2023-07-13T12:07:04;24.00;99.90
24097;DHT22;12275;48.550;12.132;2023-07-13T12:09:30;24.00;99.90
24097;DHT22;12275;48.550;12.132;2023-07-13T12:11:57;24.00;99.90
24097;DHT22;12275;48.550;12.132;2023-07-13T12:14:25;23.80;99.90
24097;DHT22;12275;48.550;12.132;2023-07-13T12:16:52;23.70;99.90
24097;DHT22;12275;48.550;12.132;2023-07-13T12:19:21;23.60;99.90
24097;DHT22;12275;48.550;12.132;2023-07-13T12:21:48;23.70;99.90
24097;DHT22;12275;48.550;12.132;2023-07-13T12:24:17;24.00;99.90
24097;DHT22;12275;48.550;12.132;2023-07-13T12:26:43;24.10;99.90
24097;DHT22;12275;48.550;12.132;2023-07-13T12:29:15;23.90;99.90
24097;DHT22;12275;48.550;12.132;2023-07-13T12:31:46;23.70;99.90
24097;DHT22;12275;48.550;12.132;2023-07-13T12:34:17;23.60;99.90
24097;DHT22;12275;48.550;12.132;2023-07-13T12:36:49;23.50;99.90
24097;DHT22;12275;48.550;12.132;2023-07-13T12:39:22;23.60;99.90
24097;DHT22;12275;48.550;12.132;2023-07-13T12:41:50;23.70;99.90
24097;DHT22;12275;48.550;12.132;2023-07-13T12:44:28;23.90;99.90
24097;DHT22;12275;48.550;12.132;2023-07-13T12:47:06;24.10;99.90
24097;DHT22;12275;48.550;12.132;2023-07-13T12:49:41;24.10;99.90
24097;DHT22;12275;48.550;12.132;2023-07-13T12:52:16;24.00;99.90
24097;DHT22;12275;48.550;12.132;2023-07-13T12:54:56;23.80;99.90
24097;DHT22;12275;48.550;12.132;2023-07-13T12:57:22;23.80;99.90
24097;DHT22;12275;48.550;12.132;2023-07-13T12:59:52;23.90;99.90
24097;DHT22;12275;48.550;12.132;2023-07-13T13:02:32;24.10;99.90
24097;DHT22;12275;48.550;12.132;2023-07-13T13:04:59;24.10;99.90
24097;DHT22;12275;48.550;12.132;2023-07-13T13:07:25;24.00;99.90
24097;DHT22;12275;48.550;12.132;2023-07-13T13:09:51;24.00;99.90
24097;DHT22;12275;48.550;12.132;2023-07-13T13:12:20;23.80;99.90
24097;DHT22;12275;48.550;12.132;2023-07-13T13:14:46;23.80;99.90
24097;DHT22;12275;48.550;12.132;2023-07-13T13:17:30;23.80;99.90
24097;DHT22;12275;48.550;12.132;2023-07-13T13:19:57;23.80;99.90
24097;DHT22;12275;48.550;12.132;2023-07-13T13:22:22;23.90;99.90
24097;DHT22;12275;48.550;12.132;2023-07-13T13:24:48;23.90;99.90
24097;DHT22;12275;48.550;12.132;2023-07-13T13:27:18;23.90;99.90
24097;DHT22;12275;48.550;12.132;2023-07-13T13:29:45;23.90;99.90
24097;DHT22;12275;48.550;12.132;2023-07-13T13:32:13;23.80;99.90
24097;DHT22;12275;48.550;12.132;2023-07-13T13:34:39;23.70;99.90
24097;DHT22;12275;48.550;12.132;2023-07-13T13:37:09;23.60;99.90
24097;DHT22;12275;48.550;12.132;2023-07-13T13:39:38;23.70;99.90
24097;DHT22;12275;48.550;12.132;2023-07-13T13:42:04;23.70;99.90
24097;DHT22;12275;48.550;12.132;2023-07-13T13:44:30;23.80;99.90
24097;DHT22;12275;48.550;12.132;2023-07-13T13:46:56;23.80;99.90
24097;DHT22;12275;48.550;12.132;2023-07-13T13:49:26;23.80;99.90
24097;DHT22;12275;48.550;12.132;2023-07-13T13:51:53;23.70;99.90
24097;DHT22;12275;48.550;12.132;2023-07-13T13:54:20;23.80;99.90
24097;DHT22;12275;48.550;12.132;2023-07-13T13:56:48;23.80;99.90
24097;DHT22;12275;48.550;12.132;2023-07-13T13:59:14;23.70;99.90
24097;DHT22;12275;48.550;12.132;2023-07-13T14:01:42;23.70;99.90
24097;DHT22;12275;48.550;12.132;2023-07-13T14:04:21;23.70;99.90
24097;DHT22;12275;48.550;12.132;2023-07-13T14:06:48;23.70;99.90
24097;DHT22;12275;48.550;12.132;2023-07-13T14:09:17;23.80;99.90
24097;DHT22;12275;48.550;12.132;2023-07-13T14:11:44;23.80;99.90
24097;DHT22;12275;48.550;12.132;2023-07-13T14:14:22;23.80;99.90
24097;DHT22;12275;48.550;12.132;2023-07-13T14:16:49;23.90;99.90
24097;DHT22;12275;48.550;12.132;2023-07-13T14:19:19;23.90;99.90
24097;DHT22;12275;48.550;12.132;2023-07-13T14:21:47;24.00;99.90
24097;DHT22;12275;48.550;12.132;2023-07-13T14:24:14;24.10;99.90
24097;DHT22;12275;48.550;12.132;2023-07-13T14:26:41;24.20;99.90
24097;DHT22;12275;48.550;12.132;2023-07-13T14:29:16;24.20;99.90
24097;DHT22;12275;48.550;12.132;2023-07-13T14:31:43;24.20;99.90
24097;DHT22;12275;48.550;12.132;2023-07-13T14:34:12;24.20;99.90
24097;DHT22;12275;48.550;12.132;2023-07-13T14:36:44;24.10;99.90
24097;DHT22;12275;48.550;12.132;2023-07-13T14:39:21;24.00;99.90
24097;DHT22;12275;48.550;12.132;2023-07-13T14:41:50;23.90;99.90
24097;DHT22;12275;48.550;12.132;2023-07-13T14:44:25;23.90;99.90
24097;DHT22;12275;48.550;12.132;2023-07-13T14:46:51;23.90;99.90
24097;DHT22;12275;48.550;12.132;2023-07-13T14:49:39;23.90;99.90
24097;DHT22;12275;48.550;12.132;2023-07-13T14:52:18;23.90;99.90
24097;DHT22;12275;48.550;12.132;2023-07-13T14:54:44;24.00;99.90
24097;DHT22;12275;48.550;12.132;2023-07-13T14:57:16;24.00;99.90
24097;DHT22;12275;48.550;12.132;2023-07-13T14:59:42;24.00;99.90
24097;DHT22;12275;48.550;12.132;2023-07-13T15:02:23;24.00;99.90
24097;DHT22;12275;48.550;12.132;2023-07-13T15:04:51;24.00;99.90
24097;DHT22;12275;48.550;12.132;2023-07-13T15:07:16;24.00;99.90
24097;DHT22;12275;48.550;12.132;2023-07-13T15:09:44;24.00;99.90
24097;DHT22;12275;48.550;12.132;2023-07-13T15:12:10;24.00;99.90
24097;DHT22;12275;48.550;12.132;2023-07-13T15:14:36;24.00;99.90
24097;DHT22;12275;48.550;12.132;2023-07-13T15:17:02;24.10;99.90
24097;DHT22;12275;48.550;12.132;2023-07-13T15:19:28;24.00;99.90
24097;DHT22;12275;48.550;12.132;2023-07-13T15:21:57;24.00;99.90
24097;DHT22;12275;48.550;12.132;2023-07-13T15:24:23;24.00;99.90
24097;DHT22;12275;48.550;12.132;2023-07-13T15:26:49;24.00;99.90
24097;DHT22;12275;48.550;12.132;2023-07-13T15:29:16;24.00;99.90
24097;DHT22;12275;48.550;12.132;2023-07-13T15:31:42;24.00;99.90
24097;DHT22;12275;48.550;12.132;2023-07-13T15:34:13;24.10;99.90
24097;DHT22;12275;48.550;12.132;2023-07-13T15:36:39;24.10;99.90
24097;DHT22;12275;48.550;12.132;2023-07-13T15:39:05;24.10;99.90
24097;DHT22;12275;48.550;12.132;2023-07-13T15:41:31;24.10;99.90
24097;DHT22;12275;48.550;12.132;2023-07-13T15:43:59;24.10;99.90
24097;DHT22;12275;48.550;12.132;2023-07-13T15:46:26;24.10;99.90
24097;DHT22;12275;48.550;12.132;2023-07-13T15:48:53;24.10;99.90
24097;DHT22;12275;48.550;12.132;2023-07-13T15:51:30;24.10;99.90
24097;DHT22;12275;48.550;12.132;2023-07-13T15:54:01;24.10;99.90
24097;DHT22;12275;48.550;12.132;2023-07-13T15:56:35;24.10;99.90
24097;DHT22;12275;48.550;12.132;2023-07-13T15:59:02;24.00;99.90
24097;DHT22;12275;48.550;12.132;2023-07-13T16:01:29;24.00;99.90
24097;DHT22;12275;48.550;12.132;2023-07-13T16:03:55;24.00;99.90
24097;DHT22;12275;48.550;12.132;2023-07-13T16:06:26;24.00;99.90